createdAt,value
2023-01-31T00:03:35.172Z,72
2023-01-31T00:13:34.239Z,72
2023-01-31T00:23:34.864Z,72
2023-01-31T00:33:34.950Z,72
2023-01-31T00:43:34.820Z,72
2023-01-31T00:53:34.906Z,72
2023-01-31T01:03:34.761Z,72
2023-01-31T01:13:34.652Z,72
2023-01-31T01:23:34.556Z,72
2023-01-31T01:33:34.263Z,72
2023-01-31T01:43:34.630Z,72
2023-01-31T01:53:34.190Z,72
2023-01-31T02:03:34.193Z,73
2023-01-31T02:13:34.205Z,73
2023-01-31T02:23:34.171Z,73
2023-01-31T02:33:34.187Z,73
2023-01-31T02:43:34.179Z,73
2023-01-31T02:53:34.179Z,73
2023-01-31T03:03:34.163Z,74
2023-01-31T03:13:58.041Z,74
2023-01-31T03:23:34.163Z,74
2023-01-31T03:33:34.152Z,74
2023-01-31T03:43:34.168Z,74
2023-01-31T03:53:34.159Z,74
2023-01-31T04:03:34.133Z,74
2023-01-31T04:13:34.151Z,75
2023-01-31T04:23:34.163Z,75
2023-01-31T04:33:34.146Z,75
2023-01-31T04:43:34.135Z,75
2023-01-31T04:53:34.157Z,76
2023-01-31T05:03:34.132Z,76
2023-01-31T05:13:34.133Z,76
2023-01-31T05:23:34.118Z,77
2023-01-31T05:33:34.142Z,77
2023-01-31T05:43:36.283Z,77
2023-01-31T05:53:34.102Z,77
2023-01-31T06:03:34.149Z,77
2023-01-31T06:13:34.137Z,77
2023-01-31T06:23:34.103Z,77
2023-01-31T06:33:45.466Z,78
2023-01-31T06:43:34.520Z,78
2023-01-31T06:53:34.101Z,78
2023-01-31T07:03:34.096Z,78
2023-01-31T07:13:34.088Z,78
2023-01-31T07:23:34.529Z,78
2023-01-31T07:33:34.081Z,78
2023-01-31T07:43:34.173Z,79
2023-01-31T07:53:34.315Z,79
2023-01-31T08:03:34.242Z,79
2023-01-31T08:13:34.088Z,79
2023-01-31T08:23:34.078Z,79
2023-01-31T08:33:34.058Z,79
2023-01-31T08:43:42.587Z,79
2023-01-31T08:53:34.060Z,78
2023-01-31T09:03:34.071Z,78
2023-01-31T09:13:34.092Z,78
2023-01-31T09:23:34.469Z,78
2023-01-31T09:33:34.063Z,77
2023-01-31T09:43:34.565Z,76
2023-01-31T09:53:36.441Z,75
2023-01-31T10:13:35.962Z,73
2023-01-31T10:23:34.014Z,73
2023-01-31T10:33:34.013Z,72
2023-01-31T10:43:35.936Z,72
2023-01-31T10:53:34.011Z,70
2023-01-31T11:03:33.990Z,70
2023-01-31T11:13:33.994Z,70
2023-01-31T11:23:33.968Z,69
2023-01-31T11:33:34.007Z,66
2023-01-31T11:43:33.941Z,64
2023-01-31T11:53:33.954Z,62
2023-01-31T12:03:33.987Z,61
2023-01-31T12:13:33.930Z,60
2023-01-31T12:23:33.917Z,59
2023-01-31T12:33:33.917Z,58
2023-01-31T12:43:33.897Z,58
2023-01-31T12:53:33.891Z,58
2023-01-31T13:03:33.853Z,56
2023-01-31T13:13:35.773Z,56
2023-01-31T13:23:33.838Z,56
2023-01-31T13:33:33.858Z,56
2023-01-31T13:43:33.808Z,56
2023-01-31T13:53:33.774Z,56
2023-01-31T14:03:33.758Z,55
2023-01-31T14:13:33.752Z,56
2023-01-31T14:23:33.716Z,55
2023-01-31T14:33:33.728Z,56
2023-01-31T14:43:33.700Z,56
2023-01-31T14:53:33.704Z,57
2023-01-31T15:03:33.776Z,58
2023-01-31T15:13:33.682Z,58
2023-01-31T15:23:33.682Z,58
2023-01-31T15:33:33.667Z,59
2023-01-31T15:43:34.081Z,58
2023-01-31T15:53:35.553Z,57
2023-01-31T16:03:33.637Z,58
2023-01-31T16:13:34.039Z,58
2023-01-31T16:23:33.610Z,59
2023-01-31T16:33:33.588Z,59
2023-01-31T16:43:33.603Z,59
2023-01-31T16:53:34.013Z,60
2023-01-31T17:03:36.089Z,60
2023-01-31T17:13:33.583Z,60
2023-01-31T17:23:33.583Z,61
2023-01-31T17:33:33.573Z,61
2023-01-31T17:43:33.959Z,61
2023-01-31T17:53:40.458Z,62
2023-01-31T18:03:33.540Z,62
2023-01-31T18:13:33.518Z,62
2023-01-31T18:23:33.492Z,63
2023-01-31T18:33:33.512Z,64
2023-01-31T18:43:33.486Z,64
2023-01-31T18:53:33.472Z,64
2023-01-31T19:03:33.465Z,64
2023-01-31T19:13:33.470Z,64
2023-01-31T19:23:33.874Z,65
2023-01-31T19:33:33.449Z,65
2023-01-31T19:43:33.450Z,65
2023-01-31T19:53:33.442Z,65
2023-01-31T20:03:33.438Z,66
2023-01-31T20:13:33.443Z,66
2023-01-31T20:23:33.410Z,66
2023-01-31T20:33:33.425Z,67
2023-01-31T20:43:33.427Z,67
2023-01-31T20:53:33.422Z,67
2023-01-31T21:03:33.387Z,68
2023-01-31T21:13:33.431Z,68
2023-01-31T21:23:33.389Z,69
2023-01-31T21:33:33.401Z,69
2023-01-31T21:43:33.787Z,70
2023-01-31T21:53:33.369Z,70
2023-01-31T22:03:33.371Z,70
2023-01-31T22:13:33.361Z,70
2023-01-31T22:23:33.360Z,70
2023-01-31T22:33:33.332Z,71
2023-01-31T22:43:33.336Z,71
2023-01-31T22:53:33.752Z,71
2023-01-31T23:03:35.265Z,71
2023-01-31T23:23:33.342Z,72
2023-01-31T23:33:33.790Z,72
2023-01-31T23:43:38.392Z,72
2023-01-31T23:53:33.366Z,72
